Gerton, NC

04:21 PM EST on Novembru 28, 2014 (GMT -0500)
Little Bearwallow MOUNTAIN | Change Station
CLOSE
Current Station
Personal Weather Stations
Location: Hendersonville, NC
Elevation: 2820 ft
Nearby Weather Stations

Elev 2820 ft 35.44 °N, 82.35 °W | Updated 45 seconds ago

ċar
ċar
37.6 °F
Feels Like 38 °F
N
1.0
rih varjabbli rih from Punent il-bic
Gusts 0.0 mph

Illum
High -- | Low -- °F
--% Chance of Precip.
Yesterday
High -- | Low -- °F
Precip. -- in
7:17 AM 5:16 PM
Waxing Crescent, 44% visible
pressjoni 30.26 in
vizibilita 10.0 mili
s ċar
kesha tar-rih 38 °F
punt ta' nida 14 °F
umdita 37%
Rainfall 0.00 in
Snow Depth Not available.
UV 1 out of 12
Pollen .30 out of 12
Air Quality Not available.
Flu Activity Not available.
METAR KAVL 282054Z AUTO 34007KT 10SM CLR 06/M07 A3023 RMK AO2 SLP246 T00561072 56013

More Conditions Fewer Conditions

pressjoni 30.26 in
vizibilita 10.0 mili
s ċar
kesha tar-rih 38 °F
punt ta' nida 14 °F
umdita 37%
Rainfall 0.00 in
Snow Depth Not available.
UV 1 out of 12
Pollen .30 out of 12
Air Quality Not available.
Flu Activity Not available.
METAR KAVL 282054Z AUTO 34007KT 10SM CLR 06/M07 A3023 RMK AO2 SLP246 T00561072 56013

More Conditions Fewer Conditions

10-Day Weather Forecast

Almanac

Astronomy

Nov. 28, 2014 Rise Set
Actual Time
Civil Twilight
Nautical Twilight
Astronomical Twilight
Moon
Length Of Visible Light
Length of Day
Tomorrow will be .
, % of the Moon is Illuminated

Today's Extremes

State Highs State Lows

Community

WunderPhotos

Upload Photos

1,774,306 photos uploaded!

WunderBlogs® & News

Nearby

Air Quality

  Air Quality AQ Index Pollutant
Not available.

Snow Depth

Station Depth Elevation

Earthquake Activity

City Distance Mag. Time & Date
Minimum magnitude displayed is 2.5.

Coastal Water Temperatures

Post temperatura

Nearby Weather Stations